createdAt,value
2023-01-11T00:08:04.823Z,84
2023-01-11T00:18:06.893Z,83
2023-01-11T00:28:08.629Z,83
2023-01-11T00:38:11.170Z,83
2023-01-11T00:48:13.329Z,82
2023-01-11T00:58:15.542Z,82
2023-01-11T01:08:17.230Z,82
2023-01-11T01:18:19.402Z,82
2023-01-11T01:28:21.474Z,82
2023-01-11T01:38:23.214Z,82
2023-01-11T01:48:24.936Z,82
2023-01-11T01:58:26.967Z,81
2023-01-11T02:08:29.437Z,81
2023-01-11T02:18:31.526Z,81
2023-01-11T02:28:33.761Z,81
2023-01-11T02:38:35.893Z,82
2023-01-11T02:48:37.594Z,83
2023-01-11T02:58:40.115Z,83
2023-01-11T03:08:42.724Z,84
2023-01-11T03:18:45.100Z,86
2023-01-11T03:28:47.404Z,87
2023-01-11T03:38:49.523Z,87
2023-01-11T03:48:51.532Z,88
2023-01-11T03:58:53.620Z,88
2023-01-11T04:18:57.447Z,89
2023-01-11T04:28:59.482Z,89
2023-01-11T04:39:01.497Z,89
2023-01-11T04:49:03.376Z,89
2023-01-11T04:59:05.233Z,90
2023-01-11T05:09:07.434Z,90
2023-01-11T05:19:09.513Z,90
2023-01-11T05:29:11.929Z,90
2023-01-11T05:39:14.332Z,90
2023-01-11T05:49:16.569Z,90
2023-01-11T05:59:18.365Z,91
2023-01-11T06:09:20.906Z,91
2023-01-11T06:19:22.990Z,91
2023-01-11T06:29:24.687Z,91
2023-01-11T06:39:26.722Z,91
2023-01-11T06:49:28.925Z,91
2023-01-11T06:59:31.468Z,91
2023-01-11T07:09:33.652Z,91
2023-01-11T07:19:36.101Z,91
2023-01-11T07:29:38.733Z,91
2023-01-11T07:39:43.647Z,91
2023-01-11T07:49:43.738Z,91
2023-01-11T07:59:46.091Z,91
2023-01-11T08:09:48.043Z,91
2023-01-11T08:19:50.570Z,91
2023-01-11T08:29:52.401Z,91
2023-01-11T08:39:54.473Z,91
2023-01-11T08:49:56.543Z,91
2023-01-11T08:59:58.467Z,91
2023-01-11T09:10:01.078Z,91
2023-01-11T09:20:02.901Z,90
2023-01-11T09:30:05.573Z,90
2023-01-11T09:40:06.839Z,89
2023-01-11T09:50:08.822Z,89
2023-01-11T10:00:11.130Z,89
2023-01-11T10:20:15.540Z,88
2023-01-11T10:30:17.738Z,88
2023-01-11T10:40:19.414Z,87
2023-01-11T10:50:21.739Z,87
2023-01-11T11:00:24.316Z,86
2023-01-11T11:10:26.394Z,86
2023-01-11T11:20:28.252Z,84
2023-01-11T11:30:30.846Z,84
2023-01-11T11:40:33.337Z,84
2023-01-11T11:50:44.556Z,83
2023-01-11T12:00:37.789Z,81
2023-01-11T12:10:39.997Z,79
2023-01-11T12:20:42.072Z,78
2023-01-11T12:40:46.165Z,79
2023-01-11T12:50:48.496Z,77
2023-01-11T13:00:50.496Z,76
2023-01-11T13:10:52.328Z,77
2023-01-11T13:21:01.000Z,75
2023-01-11T13:30:56.803Z,73
2023-01-11T13:40:59.040Z,73
2023-01-11T13:51:01.104Z,72
2023-01-11T14:01:03.774Z,70
2023-01-11T14:11:05.515Z,70
2023-01-11T14:21:07.462Z,71
2023-01-11T14:31:09.596Z,71
2023-01-11T14:41:11.547Z,71
2023-01-11T14:51:13.164Z,71
2023-01-11T15:01:15.143Z,71
2023-01-11T15:11:17.464Z,70
2023-01-11T15:21:19.428Z,70
2023-01-11T15:31:21.987Z,70
2023-01-11T15:41:24.480Z,69
2023-01-11T15:51:27.059Z,70
2023-01-11T16:01:29.119Z,69
2023-01-11T16:21:33.361Z,70
2023-01-11T16:31:35.764Z,70
2023-01-11T16:41:38.256Z,70
2023-01-11T16:51:40.131Z,71
2023-01-11T17:01:42.422Z,72
2023-01-11T17:11:44.549Z,72
2023-01-11T17:21:46.881Z,73
2023-01-11T17:31:49.229Z,73
2023-01-11T17:41:51.165Z,73
2023-01-11T17:51:53.102Z,72
2023-01-11T18:01:55.138Z,71
2023-01-11T18:11:56.828Z,71
2023-01-11T18:21:58.763Z,72
2023-01-11T18:32:01.368Z,73
2023-01-11T18:42:03.148Z,73
2023-01-11T18:52:04.962Z,73
2023-01-11T19:02:16.486Z,73
2023-01-11T19:12:08.890Z,73
2023-01-11T19:22:11.627Z,73
2023-01-11T19:32:13.598Z,73
2023-01-11T19:42:15.699Z,73
2023-01-11T19:52:17.734Z,73
2023-01-11T20:02:19.685Z,73
2023-01-11T20:02:41.624Z,73
2023-01-11T20:12:28.438Z,73
2023-01-11T20:22:30.667Z,73
2023-01-11T20:32:41.269Z,73
2023-01-11T20:42:34.900Z,73
2023-01-11T20:52:37.360Z,73
2023-01-11T21:02:39.644Z,72
2023-01-11T21:12:42.123Z,72
2023-01-11T21:22:44.254Z,73
2023-01-11T21:32:46.852Z,76
2023-01-11T21:42:49.412Z,78
2023-01-11T21:52:51.130Z,79
2023-01-11T22:02:53.743Z,80
2023-01-11T22:22:57.298Z,80
2023-01-11T22:32:59.362Z,80
2023-01-11T22:43:01.452Z,79
2023-01-11T22:53:03.617Z,78
2023-01-11T23:03:05.563Z,77
2023-01-11T23:13:07.972Z,76
2023-01-11T23:23:10.316Z,77
2023-01-11T23:33:12.185Z,79
2023-01-11T23:43:13.967Z,82
2023-01-11T23:53:16.586Z,83
